sensor_id;sensor_type;location;lat;lon;timestamp;P1;durP1;ratioP1;P2;durP2;ratioP2
28834;SDS011;15969;51.536;11.884;2023-05-07T00:02:21;14.37;;;12.17;;
28834;SDS011;15969;51.536;11.884;2023-05-07T00:04:47;12.23;;;11.03;;
28834;SDS011;15969;51.536;11.884;2023-05-07T00:07:13;12.40;;;11.13;;
28834;SDS011;15969;51.536;11.884;2023-05-07T00:09:40;13.83;;;12.00;;
28834;SDS011;15969;51.536;11.884;2023-05-07T00:12:05;14.83;;;12.03;;
28834;SDS011;15969;51.536;11.884;2023-05-07T00:14:32;12.43;;;11.13;;
28834;SDS011;15969;51.536;11.884;2023-05-07T00:16:58;13.13;;;11.67;;
28834;SDS011;15969;51.536;11.884;2023-05-07T00:19:23;13.17;;;11.73;;
28834;SDS011;15969;51.536;11.884;2023-05-07T00:21:49;13.67;;;11.87;;
28834;SDS011;15969;51.536;11.884;2023-05-07T00:24:15;13.43;;;12.03;;
28834;SDS011;15969;51.536;11.884;2023-05-07T00:26:40;12.20;;;10.90;;
28834;SDS011;15969;51.536;11.884;2023-05-07T00:29:06;14.37;;;11.97;;
28834;SDS011;15969;51.536;11.884;2023-05-07T00:31:32;12.93;;;11.03;;
28834;SDS011;15969;51.536;11.884;2023-05-07T00:33:58;12.00;;;10.43;;
28834;SDS011;15969;51.536;11.884;2023-05-07T00:36:23;13.90;;;11.47;;
28834;SDS011;15969;51.536;11.884;2023-05-07T00:38:49;13.00;;;11.50;;
28834;SDS011;15969;51.536;11.884;2023-05-07T00:41:15;12.67;;;11.07;;
28834;SDS011;15969;51.536;11.884;2023-05-07T00:43:40;11.97;;;10.77;;
28834;SDS011;15969;51.536;11.884;2023-05-07T00:46:06;12.30;;;10.97;;
28834;SDS011;15969;51.536;11.884;2023-05-07T00:48:32;12.60;;;10.90;;
28834;SDS011;15969;51.536;11.884;2023-05-07T00:50:57;11.60;;;10.40;;
28834;SDS011;15969;51.536;11.884;2023-05-07T00:53:23;12.33;;;11.03;;
28834;SDS011;15969;51.536;11.884;2023-05-07T00:55:49;11.90;;;10.70;;
28834;SDS011;15969;51.536;11.884;2023-05-07T00:58:15;11.90;;;10.63;;
28834;SDS011;15969;51.536;11.884;2023-05-07T01:00:41;11.77;;;10.50;;
28834;SDS011;15969;51.536;11.884;2023-05-07T01:03:07;11.20;;;9.67;;
28834;SDS011;15969;51.536;11.884;2023-05-07T01:05:32;11.80;;;10.63;;
28834;SDS011;15969;51.536;11.884;2023-05-07T01:07:58;12.63;;;11.30;;
28834;SDS011;15969;51.536;11.884;2023-05-07T01:10:25;11.20;;;10.03;;
28834;SDS011;15969;51.536;11.884;2023-05-07T01:12:51;11.57;;;9.87;;
28834;SDS011;15969;51.536;11.884;2023-05-07T01:15:17;12.20;;;10.40;;
28834;SDS011;15969;51.536;11.884;2023-05-07T01:17:43;11.57;;;9.77;;
28834;SDS011;15969;51.536;11.884;2023-05-07T01:20:09;11.17;;;10.03;;
28834;SDS011;15969;51.536;11.884;2023-05-07T01:22:39;11.13;;;10.03;;
28834;SDS011;15969;51.536;11.884;2023-05-07T01:25:05;12.43;;;10.23;;
28834;SDS011;15969;51.536;11.884;2023-05-07T01:27:33;11.53;;;10.33;;
28834;SDS011;15969;51.536;11.884;2023-05-07T01:30:00;11.90;;;10.80;;
28834;SDS011;15969;51.536;11.884;2023-05-07T01:32:31;14.37;;;12.23;;
28834;SDS011;15969;51.536;11.884;2023-05-07T01:35:36;14.53;;;13.03;;
28834;SDS011;15969;51.536;11.884;2023-05-07T01:38:05;17.73;;;13.50;;
28834;SDS011;15969;51.536;11.884;2023-05-07T01:40:32;14.03;;;12.63;;
28834;SDS011;15969;51.536;11.884;2023-05-07T01:42:59;15.33;;;13.80;;
28834;SDS011;15969;51.536;11.884;2023-05-07T01:45:26;16.00;;;13.27;;
28834;SDS011;15969;51.536;11.884;2023-05-07T01:47:53;15.33;;;13.73;;
28834;SDS011;15969;51.536;11.884;2023-05-07T01:50:20;14.10;;;12.70;;
28834;SDS011;15969;51.536;11.884;2023-05-07T01:52:46;15.67;;;12.07;;
28834;SDS011;15969;51.536;11.884;2023-05-07T01:55:12;13.43;;;11.93;;
28834;SDS011;15969;51.536;11.884;2023-05-07T01:57:38;12.80;;;11.47;;
28834;SDS011;15969;51.536;11.884;2023-05-07T02:00:04;12.67;;;11.47;;
28834;SDS011;15969;51.536;11.884;2023-05-07T02:02:30;13.60;;;12.30;;
28834;SDS011;15969;51.536;11.884;2023-05-07T02:04:56;11.67;;;10.57;;
28834;SDS011;15969;51.536;11.884;2023-05-07T02:07:22;12.17;;;10.87;;
28834;SDS011;15969;51.536;11.884;2023-05-07T02:09:47;11.67;;;10.50;;
28834;SDS011;15969;51.536;11.884;2023-05-07T02:12:13;11.17;;;10.10;;
28834;SDS011;15969;51.536;11.884;2023-05-07T02:14:39;14.87;;;10.93;;
28834;SDS011;15969;51.536;11.884;2023-05-07T02:17:04;11.27;;;10.17;;
28834;SDS011;15969;51.536;11.884;2023-05-07T02:19:30;11.10;;;9.97;;
28834;SDS011;15969;51.536;11.884;2023-05-07T02:21:56;10.57;;;9.40;;
28834;SDS011;15969;51.536;11.884;2023-05-07T02:24:22;11.77;;;10.10;;
28834;SDS011;15969;51.536;11.884;2023-05-07T02:26:47;10.40;;;9.37;;
28834;SDS011;15969;51.536;11.884;2023-05-07T02:29:13;11.47;;;10.13;;
28834;SDS011;15969;51.536;11.884;2023-05-07T02:31:39;11.57;;;10.20;;
28834;SDS011;15969;51.536;11.884;2023-05-07T02:34:04;9.93;;;9.03;;
28834;SDS011;15969;51.536;11.884;2023-05-07T02:36:30;10.27;;;9.23;;
28834;SDS011;15969;51.536;11.884;2023-05-07T02:38:56;9.63;;;8.70;;
28834;SDS011;15969;51.536;11.884;2023-05-07T02:41:21;10.10;;;8.77;;
28834;SDS011;15969;51.536;11.884;2023-05-07T02:43:47;10.17;;;9.20;;
28834;SDS011;15969;51.536;11.884;2023-05-07T02:46:13;10.47;;;9.43;;
28834;SDS011;15969;51.536;11.884;2023-05-07T02:48:38;8.73;;;7.93;;
28834;SDS011;15969;51.536;11.884;2023-05-07T02:51:04;9.13;;;8.30;;
28834;SDS011;15969;51.536;11.884;2023-05-07T02:53:30;11.97;;;8.37;;
28834;SDS011;15969;51.536;11.884;2023-05-07T02:55:56;9.17;;;8.27;;
28834;SDS011;15969;51.536;11.884;2023-05-07T02:58:24;8.77;;;7.87;;
28834;SDS011;15969;51.536;11.884;2023-05-07T03:00:50;9.03;;;8.20;;
28834;SDS011;15969;51.536;11.884;2023-05-07T03:03:17;8.67;;;7.80;;
28834;SDS011;15969;51.536;11.884;2023-05-07T03:05:43;9.27;;;7.90;;
28834;SDS011;15969;51.536;11.884;2023-05-07T03:08:08;8.30;;;7.60;;
28834;SDS011;15969;51.536;11.884;2023-05-07T03:10:35;8.47;;;7.73;;
28834;SDS011;15969;51.536;11.884;2023-05-07T03:13:01;8.87;;;7.97;;
28834;SDS011;15969;51.536;11.884;2023-05-07T03:15:27;9.43;;;7.90;;
28834;SDS011;15969;51.536;11.884;2023-05-07T03:17:53;9.13;;;7.67;;
28834;SDS011;15969;51.536;11.884;2023-05-07T03:20:19;9.27;;;8.43;;
28834;SDS011;15969;51.536;11.884;2023-05-07T03:22:44;9.00;;;8.20;;
28834;SDS011;15969;51.536;11.884;2023-05-07T03:25:10;9.50;;;8.40;;
28834;SDS011;15969;51.536;11.884;2023-05-07T03:27:36;9.60;;;8.70;;
28834;SDS011;15969;51.536;11.884;2023-05-07T03:30:02;9.07;;;8.20;;
28834;SDS011;15969;51.536;11.884;2023-05-07T03:32:29;9.37;;;8.33;;
28834;SDS011;15969;51.536;11.884;2023-05-07T03:34:55;9.87;;;8.93;;
28834;SDS011;15969;51.536;11.884;2023-05-07T03:37:21;10.47;;;9.47;;
28834;SDS011;15969;51.536;11.884;2023-05-07T03:39:46;10.40;;;9.40;;
28834;SDS011;15969;51.536;11.884;2023-05-07T03:42:12;10.93;;;9.83;;
28834;SDS011;15969;51.536;11.884;2023-05-07T03:44:38;11.70;;;10.50;;
28834;SDS011;15969;51.536;11.884;2023-05-07T03:47:04;11.40;;;10.30;;
28834;SDS011;15969;51.536;11.884;2023-05-07T03:49:29;13.00;;;11.70;;
28834;SDS011;15969;51.536;11.884;2023-05-07T03:51:55;11.30;;;10.30;;
28834;SDS011;15969;51.536;11.884;2023-05-07T03:54:21;11.43;;;10.33;;
28834;SDS011;15969;51.536;11.884;2023-05-07T03:56:47;12.90;;;11.27;;
28834;SDS011;15969;51.536;11.884;2023-05-07T03:59:13;12.50;;;11.30;;
28834;SDS011;15969;51.536;11.884;2023-05-07T04:01:39;12.77;;;11.57;;
28834;SDS011;15969;51.536;11.884;2023-05-07T04:04:04;12.83;;;11.57;;
28834;SDS011;15969;51.536;11.884;2023-05-07T04:06:30;13.43;;;12.03;;
28834;SDS011;15969;51.536;11.884;2023-05-07T04:08:56;12.60;;;11.40;;
28834;SDS011;15969;51.536;11.884;2023-05-07T04:11:22;12.40;;;11.20;;
28834;SDS011;15969;51.536;11.884;2023-05-07T04:13:48;13.00;;;11.70;;
28834;SDS011;15969;51.536;11.884;2023-05-07T04:16:14;13.47;;;12.17;;
28834;SDS011;15969;51.536;11.884;2023-05-07T04:18:39;13.27;;;12.03;;
28834;SDS011;15969;51.536;11.884;2023-05-07T04:21:06;14.10;;;12.70;;
28834;SDS011;15969;51.536;11.884;2023-05-07T04:23:43;13.93;;;12.40;;
28834;SDS011;15969;51.536;11.884;2023-05-07T04:26:09;13.57;;;12.27;;
28834;SDS011;15969;51.536;11.884;2023-05-07T04:28:35;13.20;;;11.90;;
28834;SDS011;15969;51.536;11.884;2023-05-07T04:31:01;13.60;;;12.30;;
28834;SDS011;15969;51.536;11.884;2023-05-07T04:33:26;13.07;;;11.80;;
28834;SDS011;15969;51.536;11.884;2023-05-07T04:35:52;13.60;;;12.30;;
28834;SDS011;15969;51.536;11.884;2023-05-07T04:38:18;13.90;;;12.60;;
28834;SDS011;15969;51.536;11.884;2023-05-07T04:40:44;13.53;;;11.93;;
28834;SDS011;15969;51.536;11.884;2023-05-07T04:43:09;13.67;;;12.30;;
28834;SDS011;15969;51.536;11.884;2023-05-07T04:45:35;14.17;;;12.77;;
28834;SDS011;15969;51.536;11.884;2023-05-07T04:48:01;13.67;;;12.30;;
28834;SDS011;15969;51.536;11.884;2023-05-07T04:50:27;14.33;;;12.90;;
28834;SDS011;15969;51.536;11.884;2023-05-07T04:52:53;14.07;;;12.77;;
28834;SDS011;15969;51.536;11.884;2023-05-07T04:55:18;16.00;;;13.47;;
28834;SDS011;15969;51.536;11.884;2023-05-07T04:57:44;16.00;;;14.30;;
28834;SDS011;15969;51.536;11.884;2023-05-07T05:00:10;14.37;;;12.87;;
28834;SDS011;15969;51.536;11.884;2023-05-07T05:02:39;14.80;;;13.40;;
28834;SDS011;15969;51.536;11.884;2023-05-07T05:05:05;16.33;;;13.13;;
28834;SDS011;15969;51.536;11.884;2023-05-07T05:07:32;15.03;;;13.53;;
28834;SDS011;15969;51.536;11.884;2023-05-07T05:09:57;15.90;;;14.30;;
28834;SDS011;15969;51.536;11.884;2023-05-07T05:12:23;14.77;;;13.20;;
28834;SDS011;15969;51.536;11.884;2023-05-07T05:14:49;15.97;;;14.17;;
28834;SDS011;15969;51.536;11.884;2023-05-07T05:17:14;15.50;;;13.90;;
28834;SDS011;15969;51.536;11.884;2023-05-07T05:19:40;15.40;;;13.97;;
28834;SDS011;15969;51.536;11.884;2023-05-07T05:22:06;14.63;;;13.13;;
28834;SDS011;15969;51.536;11.884;2023-05-07T05:24:32;15.60;;;14.03;;
28834;SDS011;15969;51.536;11.884;2023-05-07T05:26:57;15.50;;;13.97;;
28834;SDS011;15969;51.536;11.884;2023-05-07T05:29:26;14.43;;;12.93;;
28834;SDS011;15969;51.536;11.884;2023-05-07T05:31:51;15.27;;;13.60;;
28834;SDS011;15969;51.536;11.884;2023-05-07T05:34:17;13.57;;;12.20;;
28834;SDS011;15969;51.536;11.884;2023-05-07T05:36:44;14.83;;;12.43;;
28834;SDS011;15969;51.536;11.884;2023-05-07T05:39:10;14.40;;;12.97;;
28834;SDS011;15969;51.536;11.884;2023-05-07T05:41:36;12.90;;;11.67;;
28834;SDS011;15969;51.536;11.884;2023-05-07T05:44:01;13.73;;;12.13;;
28834;SDS011;15969;51.536;11.884;2023-05-07T05:46:27;14.70;;;12.77;;
28834;SDS011;15969;51.536;11.884;2023-05-07T05:48:53;12.87;;;11.43;;
28834;SDS011;15969;51.536;11.884;2023-05-07T05:51:18;13.47;;;12.07;;
28834;SDS011;15969;51.536;11.884;2023-05-07T05:53:45;15.00;;;12.07;;
28834;SDS011;15969;51.536;11.884;2023-05-07T05:56:11;12.97;;;11.67;;
28834;SDS011;15969;51.536;11.884;2023-05-07T05:58:37;13.67;;;12.37;;
28834;SDS011;15969;51.536;11.884;2023-05-07T06:01:02;13.00;;;11.73;;
28834;SDS011;15969;51.536;11.884;2023-05-07T06:03:28;13.13;;;11.83;;
28834;SDS011;15969;51.536;11.884;2023-05-07T06:05:54;14.27;;;11.37;;
28834;SDS011;15969;51.536;11.884;2023-05-07T06:08:20;12.23;;;10.93;;
28834;SDS011;15969;51.536;11.884;2023-05-07T06:10:45;12.53;;;11.27;;
28834;SDS011;15969;51.536;11.884;2023-05-07T06:13:11;12.10;;;10.90;;
28834;SDS011;15969;51.536;11.884;2023-05-07T06:15:37;11.73;;;10.63;;
28834;SDS011;15969;51.536;11.884;2023-05-07T06:18:02;11.53;;;10.33;;
28834;SDS011;15969;51.536;11.884;2023-05-07T06:20:28;11.67;;;10.37;;
28834;SDS011;15969;51.536;11.884;2023-05-07T06:22:54;10.60;;;9.60;;
28834;SDS011;15969;51.536;11.884;2023-05-07T06:25:19;10.37;;;9.37;;
28834;SDS011;15969;51.536;11.884;2023-05-07T06:27:45;10.10;;;9.13;;
28834;SDS011;15969;51.536;11.884;2023-05-07T06:30:11;11.07;;;9.97;;
28834;SDS011;15969;51.536;11.884;2023-05-07T06:32:37;10.43;;;9.47;;
28834;SDS011;15969;51.536;11.884;2023-05-07T06:35:02;10.17;;;9.17;;
28834;SDS011;15969;51.536;11.884;2023-05-07T06:37:28;9.43;;;8.53;;
28834;SDS011;15969;51.536;11.884;2023-05-07T06:39:54;9.23;;;8.43;;
28834;SDS011;15969;51.536;11.884;2023-05-07T06:42:19;9.53;;;8.53;;
28834;SDS011;15969;51.536;11.884;2023-05-07T06:44:45;8.90;;;8.00;;
28834;SDS011;15969;51.536;11.884;2023-05-07T06:47:11;8.40;;;7.63;;
28834;SDS011;15969;51.536;11.884;2023-05-07T06:49:36;9.20;;;7.27;;
28834;SDS011;15969;51.536;11.884;2023-05-07T06:52:02;7.60;;;6.77;;
28834;SDS011;15969;51.536;11.884;2023-05-07T06:54:28;7.50;;;6.80;;
28834;SDS011;15969;51.536;11.884;2023-05-07T06:56:54;7.07;;;6.37;;
28834;SDS011;15969;51.536;11.884;2023-05-07T06:59:20;6.70;;;6.03;;
28834;SDS011;15969;51.536;11.884;2023-05-07T07:01:45;6.87;;;6.27;;
28834;SDS011;15969;51.536;11.884;2023-05-07T07:04:11;6.90;;;6.30;;
28834;SDS011;15969;51.536;11.884;2023-05-07T07:06:37;6.43;;;5.93;;
28834;SDS011;15969;51.536;11.884;2023-05-07T07:09:02;7.53;;;6.83;;
28834;SDS011;15969;51.536;11.884;2023-05-07T07:11:28;7.53;;;6.73;;
28834;SDS011;15969;51.536;11.884;2023-05-07T07:13:54;8.37;;;7.37;;
28834;SDS011;15969;51.536;11.884;2023-05-07T07:16:20;7.30;;;6.63;;
28834;SDS011;15969;51.536;11.884;2023-05-07T07:18:46;6.87;;;6.17;;
28834;SDS011;15969;51.536;11.884;2023-05-07T07:21:12;6.90;;;6.17;;
28834;SDS011;15969;51.536;11.884;2023-05-07T07:23:38;7.57;;;6.87;;
28834;SDS011;15969;51.536;11.884;2023-05-07T07:26:03;7.50;;;6.80;;
28834;SDS011;15969;51.536;11.884;2023-05-07T07:28:29;7.57;;;6.87;;
28834;SDS011;15969;51.536;11.884;2023-05-07T07:30:55;6.93;;;6.33;;
28834;SDS011;15969;51.536;11.884;2023-05-07T07:33:20;7.67;;;6.97;;
28834;SDS011;15969;51.536;11.884;2023-05-07T07:35:46;7.20;;;6.53;;
28834;SDS011;15969;51.536;11.884;2023-05-07T07:38:12;8.27;;;7.47;;
28834;SDS011;15969;51.536;11.884;2023-05-07T07:40:37;8.40;;;7.60;;
28834;SDS011;15969;51.536;11.884;2023-05-07T07:43:03;8.43;;;7.73;;
28834;SDS011;15969;51.536;11.884;2023-05-07T07:45:29;8.20;;;7.50;;
28834;SDS011;15969;51.536;11.884;2023-05-07T07:47:55;8.60;;;7.80;;
28834;SDS011;15969;51.536;11.884;2023-05-07T07:50:21;9.33;;;8.43;;
28834;SDS011;15969;51.536;11.884;2023-05-07T07:52:47;10.97;;;8.47;;
28834;SDS011;15969;51.536;11.884;2023-05-07T07:55:13;9.53;;;8.63;;
28834;SDS011;15969;51.536;11.884;2023-05-07T07:57:42;9.80;;;8.83;;
28834;SDS011;15969;51.536;11.884;2023-05-07T08:00:08;8.67;;;7.77;;
28834;SDS011;15969;51.536;11.884;2023-05-07T08:02:34;8.67;;;7.87;;
28834;SDS011;15969;51.536;11.884;2023-05-07T08:05:00;9.43;;;8.40;;
28834;SDS011;15969;51.536;11.884;2023-05-07T08:07:26;9.53;;;8.60;;
28834;SDS011;15969;51.536;11.884;2023-05-07T08:09:51;8.90;;;8.00;;
28834;SDS011;15969;51.536;11.884;2023-05-07T08:12:17;8.53;;;7.73;;
28834;SDS011;15969;51.536;11.884;2023-05-07T08:14:43;8.30;;;7.50;;
28834;SDS011;15969;51.536;11.884;2023-05-07T08:17:09;8.53;;;7.73;;
28834;SDS011;15969;51.536;11.884;2023-05-07T08:19:35;8.03;;;7.33;;
28834;SDS011;15969;51.536;11.884;2023-05-07T08:22:01;9.37;;;7.73;;
28834;SDS011;15969;51.536;11.884;2023-05-07T08:24:28;8.63;;;7.80;;
28834;SDS011;15969;51.536;11.884;2023-05-07T08:26:53;9.00;;;8.10;;
28834;SDS011;15969;51.536;11.884;2023-05-07T08:29:19;7.47;;;6.77;;
28834;SDS011;15969;51.536;11.884;2023-05-07T08:31:45;7.80;;;7.10;;
28834;SDS011;15969;51.536;11.884;2023-05-07T08:34:10;7.97;;;7.37;;
28834;SDS011;15969;51.536;11.884;2023-05-07T08:36:36;8.70;;;7.93;;
28834;SDS011;15969;51.536;11.884;2023-05-07T08:39:02;8.33;;;7.60;;
28834;SDS011;15969;51.536;11.884;2023-05-07T08:41:27;7.37;;;6.77;;
28834;SDS011;15969;51.536;11.884;2023-05-07T08:43:54;7.63;;;7.03;;
28834;SDS011;15969;51.536;11.884;2023-05-07T08:46:27;7.13;;;6.53;;
28834;SDS011;15969;51.536;11.884;2023-05-07T08:48:57;6.87;;;6.20;;
28834;SDS011;15969;51.536;11.884;2023-05-07T08:51:22;6.23;;;5.73;;
28834;SDS011;15969;51.536;11.884;2023-05-07T08:53:49;7.20;;;5.73;;
28834;SDS011;15969;51.536;11.884;2023-05-07T08:56:15;5.77;;;5.30;;
28834;SDS011;15969;51.536;11.884;2023-05-07T08:58:42;6.53;;;6.00;;
28834;SDS011;15969;51.536;11.884;2023-05-07T09:01:09;6.23;;;5.73;;
28834;SDS011;15969;51.536;11.884;2023-05-07T09:03:40;6.00;;;5.50;;
28834;SDS011;15969;51.536;11.884;2023-05-07T09:06:09;6.00;;;5.50;;
28834;SDS011;15969;51.536;11.884;2023-05-07T09:08:35;5.63;;;5.13;;
28834;SDS011;15969;51.536;11.884;2023-05-07T09:11:01;6.23;;;5.63;;
28834;SDS011;15969;51.536;11.884;2023-05-07T09:13:27;6.23;;;5.73;;
28834;SDS011;15969;51.536;11.884;2023-05-07T09:15:53;6.23;;;5.73;;
28834;SDS011;15969;51.536;11.884;2023-05-07T09:18:19;6.43;;;5.90;;
28834;SDS011;15969;51.536;11.884;2023-05-07T09:20:45;6.70;;;6.10;;
28834;SDS011;15969;51.536;11.884;2023-05-07T09:23:10;7.60;;;6.90;;
28834;SDS011;15969;51.536;11.884;2023-05-07T09:25:36;7.57;;;6.87;;
28834;SDS011;15969;51.536;11.884;2023-05-07T09:28:03;7.90;;;6.17;;
28834;SDS011;15969;51.536;11.884;2023-05-07T09:30:32;7.10;;;6.53;;
28834;SDS011;15969;51.536;11.884;2023-05-07T09:32:59;7.90;;;7.20;;
28834;SDS011;15969;51.536;11.884;2023-05-07T09:35:25;8.10;;;7.30;;
28834;SDS011;15969;51.536;11.884;2023-05-07T09:37:55;8.13;;;6.93;;
28834;SDS011;15969;51.536;11.884;2023-05-07T09:40:26;8.53;;;7.73;;
28834;SDS011;15969;51.536;11.884;2023-05-07T09:42:55;8.97;;;8.17;;
28834;SDS011;15969;51.536;11.884;2023-05-07T09:45:30;8.87;;;8.13;;
28834;SDS011;15969;51.536;11.884;2023-05-07T09:47:58;10.20;;;9.20;;
28834;SDS011;15969;51.536;11.884;2023-05-07T09:50:27;8.13;;;7.43;;
28834;SDS011;15969;51.536;11.884;2023-05-07T09:53:03;8.73;;;7.93;;
28834;SDS011;15969;51.536;11.884;2023-05-07T09:55:29;9.70;;;8.90;;
28834;SDS011;15969;51.536;11.884;2023-05-07T09:57:55;9.57;;;8.73;;
28834;SDS011;15969;51.536;11.884;2023-05-07T10:00:22;11.50;;;9.07;;
28834;SDS011;15969;51.536;11.884;2023-05-07T10:02:49;10.43;;;9.43;;
28834;SDS011;15969;51.536;11.884;2023-05-07T10:05:20;10.97;;;9.90;;
28834;SDS011;15969;51.536;11.884;2023-05-07T10:07:47;10.00;;;9.10;;
28834;SDS011;15969;51.536;11.884;2023-05-07T10:10:14;9.87;;;8.93;;
28834;SDS011;15969;51.536;11.884;2023-05-07T10:12:41;10.43;;;9.53;;
28834;SDS011;15969;51.536;11.884;2023-05-07T10:15:10;13.93;;;9.60;;
28834;SDS011;15969;51.536;11.884;2023-05-07T10:17:37;9.60;;;8.73;;
28834;SDS011;15969;51.536;11.884;2023-05-07T10:20:05;10.47;;;9.47;;
28834;SDS011;15969;51.536;11.884;2023-05-07T10:22:39;12.07;;;10.97;;
28834;SDS011;15969;51.536;11.884;2023-05-07T10:25:15;16.97;;;14.00;;
28834;SDS011;15969;51.536;11.884;2023-05-07T10:27:47;10.63;;;9.73;;
28834;SDS011;15969;51.536;11.884;2023-05-07T10:33:21;9.73;;;8.87;;
28834;SDS011;15969;51.536;11.884;2023-05-07T10:35:51;9.50;;;8.60;;
28834;SDS011;15969;51.536;11.884;2023-05-07T10:38:25;10.57;;;9.57;;
28834;SDS011;15969;51.536;11.884;2023-05-07T10:40:52;11.13;;;9.97;;
28834;SDS011;15969;51.536;11.884;2023-05-07T10:43:18;10.43;;;9.50;;
28834;SDS011;15969;51.536;11.884;2023-05-07T10:45:43;11.07;;;9.90;;
28834;SDS011;15969;51.536;11.884;2023-05-07T10:51:27;11.00;;;10.00;;
28834;SDS011;15969;51.536;11.884;2023-05-07T10:54:18;10.33;;;9.43;;
28834;SDS011;15969;51.536;11.884;2023-05-07T10:56:44;11.20;;;10.07;;
28834;SDS011;15969;51.536;11.884;2023-05-07T11:04:27;11.47;;;10.47;;
28834;SDS011;15969;51.536;11.884;2023-05-07T11:07:10;12.67;;;11.33;;
28834;SDS011;15969;51.536;11.884;2023-05-07T11:09:55;11.73;;;10.63;;
28834;SDS011;15969;51.536;11.884;2023-05-07T11:15:01;12.00;;;10.80;;
28834;SDS011;15969;51.536;11.884;2023-05-07T11:17:33;11.80;;;10.80;;
28834;SDS011;15969;51.536;11.884;2023-05-07T11:20:00;11.37;;;10.27;;
28834;SDS011;15969;51.536;11.884;2023-05-07T11:24:56;10.70;;;9.80;;
28834;SDS011;15969;51.536;11.884;2023-05-07T11:27:25;10.63;;;9.23;;
28834;SDS011;15969;51.536;11.884;2023-05-07T11:29:52;10.10;;;9.10;;
28834;SDS011;15969;51.536;11.884;2023-05-07T11:32:24;9.20;;;8.33;;
28834;SDS011;15969;51.536;11.884;2023-05-07T11:34:52;9.23;;;8.43;;
28834;SDS011;15969;51.536;11.884;2023-05-07T11:37:20;9.80;;;8.87;;
28834;SDS011;15969;51.536;11.884;2023-05-07T11:39:47;9.83;;;9.03;;
28834;SDS011;15969;51.536;11.884;2023-05-07T11:42:29;9.43;;;8.53;;
28834;SDS011;15969;51.536;11.884;2023-05-07T11:45:00;10.67;;;9.67;;
28834;SDS011;15969;51.536;11.884;2023-05-07T11:47:29;10.13;;;9.33;;
28834;SDS011;15969;51.536;11.884;2023-05-07T11:49:55;11.17;;;10.07;;
28834;SDS011;15969;51.536;11.884;2023-05-07T11:52:22;10.87;;;9.87;;
28834;SDS011;15969;51.536;11.884;2023-05-07T11:54:49;10.20;;;9.30;;
28834;SDS011;15969;51.536;11.884;2023-05-07T11:57:24;9.83;;;8.87;;
28834;SDS011;15969;51.536;11.884;2023-05-07T11:59:57;9.10;;;8.20;;
28834;SDS011;15969;51.536;11.884;2023-05-07T12:02:24;9.77;;;8.97;;
28834;SDS011;15969;51.536;11.884;2023-05-07T12:04:50;9.57;;;8.87;;
28834;SDS011;15969;51.536;11.884;2023-05-07T12:07:19;10.13;;;9.27;;
28834;SDS011;15969;51.536;11.884;2023-05-07T12:09:46;10.63;;;9.50;;
28834;SDS011;15969;51.536;11.884;2023-05-07T12:12:13;9.97;;;9.13;;
28834;SDS011;15969;51.536;11.884;2023-05-07T12:14:42;10.23;;;9.33;;
28834;SDS011;15969;51.536;11.884;2023-05-07T12:17:10;9.23;;;8.27;;
28834;SDS011;15969;51.536;11.884;2023-05-07T12:19:38;9.07;;;8.27;;
28834;SDS011;15969;51.536;11.884;2023-05-07T12:22:09;9.10;;;8.40;;
28834;SDS011;15969;51.536;11.884;2023-05-07T12:27:12;7.53;;;6.83;;
28834;SDS011;15969;51.536;11.884;2023-05-07T12:29:45;6.80;;;6.20;;
28834;SDS011;15969;51.536;11.884;2023-05-07T12:32:19;5.83;;;5.27;;
28834;SDS011;15969;51.536;11.884;2023-05-07T12:34:46;6.30;;;5.60;;
28834;SDS011;15969;51.536;11.884;2023-05-07T12:37:15;6.20;;;5.60;;
28834;SDS011;15969;51.536;11.884;2023-05-07T12:39:47;6.37;;;5.77;;
28834;SDS011;15969;51.536;11.884;2023-05-07T12:42:16;6.93;;;6.33;;
28834;SDS011;15969;51.536;11.884;2023-05-07T12:44:48;8.23;;;6.53;;
28834;SDS011;15969;51.536;11.884;2023-05-07T12:47:14;7.40;;;6.73;;
28834;SDS011;15969;51.536;11.884;2023-05-07T12:49:40;7.10;;;6.47;;
28834;SDS011;15969;51.536;11.884;2023-05-07T12:52:07;7.47;;;6.77;;
28834;SDS011;15969;51.536;11.884;2023-05-07T12:54:33;8.00;;;7.20;;
28834;SDS011;15969;51.536;11.884;2023-05-07T12:57:05;7.57;;;6.87;;
28834;SDS011;15969;51.536;11.884;2023-05-07T12:59:37;7.87;;;7.17;;
28834;SDS011;15969;51.536;11.884;2023-05-07T13:02:07;8.20;;;7.50;;
28834;SDS011;15969;51.536;11.884;2023-05-07T13:04:34;7.40;;;6.70;;
28834;SDS011;15969;51.536;11.884;2023-05-07T13:07:00;10.30;;;8.10;;
28834;SDS011;15969;51.536;11.884;2023-05-07T13:09:27;8.50;;;7.70;;
28834;SDS011;15969;51.536;11.884;2023-05-07T13:11:56;8.60;;;7.80;;
28834;SDS011;15969;51.536;11.884;2023-05-07T13:14:24;8.90;;;8.20;;
28834;SDS011;15969;51.536;11.884;2023-05-07T13:16:50;8.07;;;7.37;;
28834;SDS011;15969;51.536;11.884;2023-05-07T13:19:16;8.63;;;7.73;;
28834;SDS011;15969;51.536;11.884;2023-05-07T13:21:42;8.03;;;7.23;;
28834;SDS011;15969;51.536;11.884;2023-05-07T13:24:08;7.63;;;6.87;;
28834;SDS011;15969;51.536;11.884;2023-05-07T13:26:33;8.10;;;7.40;;
28834;SDS011;15969;51.536;11.884;2023-05-07T13:28:59;8.00;;;7.30;;
28834;SDS011;15969;51.536;11.884;2023-05-07T13:31:25;8.07;;;7.27;;
28834;SDS011;15969;51.536;11.884;2023-05-07T13:33:51;7.77;;;7.07;;
28834;SDS011;15969;51.536;11.884;2023-05-07T13:36:17;7.87;;;6.20;;
28834;SDS011;15969;51.536;11.884;2023-05-07T13:38:43;6.73;;;6.13;;
28834;SDS011;15969;51.536;11.884;2023-05-07T13:41:08;7.20;;;6.60;;
28834;SDS011;15969;51.536;11.884;2023-05-07T13:43:34;6.20;;;5.70;;
28834;SDS011;15969;51.536;11.884;2023-05-07T13:46:00;6.83;;;6.27;;
28834;SDS011;15969;51.536;11.884;2023-05-07T13:48:26;5.73;;;5.23;;
28834;SDS011;15969;51.536;11.884;2023-05-07T13:50:53;6.00;;;5.50;;
28834;SDS011;15969;51.536;11.884;2023-05-07T13:53:18;5.97;;;5.37;;
28834;SDS011;15969;51.536;11.884;2023-05-07T13:55:44;5.47;;;4.87;;
28834;SDS011;15969;51.536;11.884;2023-05-07T13:58:10;5.13;;;4.60;;
28834;SDS011;15969;51.536;11.884;2023-05-07T14:00:36;5.53;;;5.03;;
28834;SDS011;15969;51.536;11.884;2023-05-07T14:03:02;5.10;;;4.60;;
28834;SDS011;15969;51.536;11.884;2023-05-07T14:05:29;5.10;;;4.43;;
28834;SDS011;15969;51.536;11.884;2023-05-07T14:07:56;4.83;;;4.43;;
28834;SDS011;15969;51.536;11.884;2023-05-07T14:10:23;5.00;;;4.30;;
28834;SDS011;15969;51.536;11.884;2023-05-07T14:12:49;6.50;;;4.63;;
28834;SDS011;15969;51.536;11.884;2023-05-07T14:15:14;5.17;;;4.33;;
28834;SDS011;15969;51.536;11.884;2023-05-07T14:17:41;4.60;;;4.20;;
28834;SDS011;15969;51.536;11.884;2023-05-07T14:20:07;4.70;;;4.30;;
28834;SDS011;15969;51.536;11.884;2023-05-07T14:22:35;5.23;;;4.50;;
28834;SDS011;15969;51.536;11.884;2023-05-07T14:25:01;5.60;;;5.10;;
28834;SDS011;15969;51.536;11.884;2023-05-07T14:27:26;6.70;;;6.00;;
28834;SDS011;15969;51.536;11.884;2023-05-07T14:29:52;5.50;;;5.00;;
28834;SDS011;15969;51.536;11.884;2023-05-07T14:32:18;6.00;;;5.43;;
28834;SDS011;15969;51.536;11.884;2023-05-07T14:34:44;6.10;;;5.50;;
28834;SDS011;15969;51.536;11.884;2023-05-07T14:37:10;6.13;;;5.53;;
28834;SDS011;15969;51.536;11.884;2023-05-07T14:39:36;5.67;;;4.97;;
28834;SDS011;15969;51.536;11.884;2023-05-07T14:42:01;5.30;;;4.80;;